Time;durP1;ratioP1;P1;durP2;ratioP2;P2;SDS_P1;SDS_P2;PMS_P1;PMS_P2;Temp;Humidity;BMP_temperature;BMP_pressure;BME280_temperature;BME280_humidity;BME280_pressure;Samples;Min_cycle;Max_cycle;Signal;HPM_P1;HPM_P2
2022/11/27 00:01:34;;;;;;;14.80;4.55;;;3.00;99.90;;;2.75;100.00;101546.72;5024326;28;20306;-78
2022/11/27 00:04:02;;;;;;;13.60;4.05;;;3.10;99.90;;;2.79;100.00;101547.78;5020154;28;20310;-78
2022/11/27 00:06:31;;;;;;;10.15;3.15;;;3.00;99.90;;;2.80;100.00;101541.75;5020262;28;20309;-77
2022/11/27 00:09:00;;;;;;;12.65;3.92;;;2.80;99.90;;;2.55;100.00;101515.91;5022289;28;20366;-76
2022/11/27 00:11:29;;;;;;;8.68;2.90;;;2.80;99.90;;;2.61;100.00;101525.84;5024135;28;20662;-77
2022/11/27 00:13:58;;;;;;;11.43;3.47;;;2.80;99.90;;;2.60;100.00;101521.38;5023329;28;20247;-76
2022/11/27 00:16:26;;;;;;;13.57;4.18;;;2.90;99.90;;;2.60;100.00;101518.78;5023705;28;20292;-77
2022/11/27 00:18:54;;;;;;;9.40;2.97;;;2.60;99.90;;;2.59;100.00;101523.09;5021987;28;20231;-77
2022/11/27 00:21:29;;;;;;;8.63;2.67;;;2.90;99.90;;;2.60;100.00;101526.59;5023918;28;20227;-78
2022/11/27 00:24:03;;;;;;;13.35;3.97;;;2.60;99.90;;;2.48;100.00;101511.13;5018894;28;20284;-77
2022/11/27 00:26:31;;;;;;;10.88;3.30;;;2.70;99.90;;;2.40;100.00;101502.84;5017561;28;20313;-77
2022/11/27 00:29:05;;;;;;;8.30;2.63;;;2.50;99.90;;;2.44;100.00;101501.31;5024649;28;20652;-76
2022/11/27 00:31:33;;;;;;;12.88;3.95;;;2.50;99.90;;;2.44;100.00;101510.03;5024810;28;20229;-77
2022/11/27 00:34:03;;;;;;;10.98;3.28;;;2.50;99.90;;;2.38;100.00;101507.06;5025452;28;20227;-77
2022/11/27 00:36:33;;;;;;;9.82;3.05;;;2.70;99.90;;;2.34;100.00;101502.47;5003421;28;20250;-77
2022/11/27 00:39:00;;;;;;;14.45;4.30;;;2.40;99.90;;;2.34;100.00;101512.03;5021709;28;20297;-77
2022/11/27 00:41:29;;;;;;;10.05;3.05;;;2.50;99.90;;;2.40;100.00;101513.28;5027191;28;20249;-77
2022/11/27 00:43:57;;;;;;;10.65;3.30;;;2.50;99.90;;;2.38;100.00;101506.19;5022448;28;20314;-77
2022/11/27 00:46:28;;;;;;;14.45;4.22;;;2.50;99.90;;;2.35;100.00;101513.81;5022824;28;20244;-77
2022/11/27 00:48:58;;;;;;;9.23;3.00;;;2.40;99.90;;;2.38;100.00;101517.53;5018887;28;20246;-77
2022/11/27 00:51:26;;;;;;;10.02;3.03;;;2.90;99.90;;;2.38;100.00;101517.53;5025196;28;20219;-77
2022/11/27 00:53:54;;;;;;;12.23;3.58;;;2.50;99.90;;;2.34;100.00;101517.25;5008355;28;20294;-77
2022/11/27 00:56:25;;;;;;;10.38;3.13;;;2.40;99.90;;;2.33;100.00;101518.06;5023179;28;20310;-77
2022/11/27 00:58:53;;;;;;;10.30;3.10;;;2.60;99.90;;;2.24;100.00;101507.97;5020996;28;20270;-77
2022/11/27 01:01:28;;;;;;;10.80;3.35;;;2.40;99.90;;;2.21;100.00;101510.41;5026514;28;20313;-77
2022/11/27 01:03:58;;;;;;;7.93;2.55;;;2.40;99.90;;;2.23;100.00;101511.38;5021276;28;20234;-77
2022/11/27 01:06:27;;;;;;;10.85;3.28;;;2.40;99.90;;;2.27;100.00;101509.88;5021392;28;20305;-77
2022/11/27 01:08:54;;;;;;;10.07;3.08;;;2.40;99.90;;;2.35;100.00;101521.66;5022071;28;20315;-77
2022/11/27 01:11:26;;;;;;;12.43;3.70;;;2.40;99.90;;;2.33;100.00;101507.63;5019957;28;20731;-77
2022/11/27 01:13:57;;;;;;;8.48;2.67;;;2.40;99.90;;;2.24;100.00;101501.03;5009826;28;20281;-77
2022/11/27 01:16:27;;;;;;;10.57;3.25;;;2.40;99.90;;;2.15;100.00;101497.88;5026499;28;20223;-77
2022/11/27 01:18:57;;;;;;;8.45;2.60;;;2.90;99.90;;;2.19;100.00;101501.56;5015176;28;20323;-77
2022/11/27 01:21:28;;;;;;;10.43;3.15;;;2.30;99.90;;;2.02;100.00;101495.34;5024373;28;20262;-77
2022/11/27 01:23:55;;;;;;;10.27;3.15;;;2.30;99.90;;;2.07;100.00;101500.84;5021067;28;20232;-78
2022/11/27 01:26:22;;;;;;;11.18;3.40;;;2.80;99.90;;;2.06;100.00;101492.13;5021389;28;20288;-77
2022/11/27 01:28:55;;;;;;;13.77;4.15;;;2.20;99.90;;;1.93;100.00;101489.59;5018945;28;20258;-77
2022/11/27 01:31:25;;;;;;;10.02;3.13;;;2.30;99.90;;;1.89;100.00;101492.81;5000058;28;20310;-77
2022/11/27 01:33:56;;;;;;;9.05;2.85;;;2.00;99.90;;;2.03;100.00;101499.75;5019909;28;20219;-77
2022/11/27 01:36:24;;;;;;;14.93;4.65;;;2.10;99.90;;;1.85;100.00;101490.84;4998248;28;20254;-77
2022/11/27 01:38:51;;;;;;;12.63;4.03;;;2.20;99.90;;;1.83;100.00;101489.84;5013396;28;20242;-77
2022/11/27 01:41:29;;;;;;;14.07;4.30;;;1.90;99.90;;;1.73;100.00;101484.88;5014322;28;20222;-77
2022/11/27 01:44:23;;;;;;;12.75;4.10;;;2.10;99.90;;;1.88;100.00;101502.34;5000855;28;20227;-77
2022/11/27 01:47:12;;;;;;;11.40;3.67;;;2.00;99.90;;;1.92;100.00;101498.22;5016458;28;20278;-77
2022/11/27 01:49:48;;;;;;;12.43;4.30;;;2.00;99.90;;;1.98;100.00;101497.69;4997657;28;20558;-77
2022/11/27 01:52:24;;;;;;;8.65;2.75;;;2.20;99.90;;;1.57;100.00;101465.69;4999145;28;20255;-76
2022/11/27 01:55:17;;;;;;;8.40;2.60;;;2.10;99.90;;;1.52;100.00;101461.91;4988637;28;20246;-77
2022/11/27 01:57:52;;;;;;;16.30;5.25;;;1.70;99.90;;;1.70;100.00;101490.78;5014723;28;20421;-77
2022/11/27 02:00:20;;;;;;;10.77;3.42;;;1.80;99.90;;;1.91;100.00;101505.16;4987877;28;20219;-77
2022/11/27 02:02:47;;;;;;;7.03;2.25;;;2.00;99.90;;;1.82;100.00;101499.38;5019933;28;20250;-77
2022/11/27 02:05:21;;;;;;;6.85;2.25;;;2.00;99.90;;;1.78;100.00;101494.78;5017832;28;20238;-77
2022/11/27 02:07:51;;;;;;;13.43;4.35;;;2.00;99.90;;;1.70;100.00;101488.19;5020453;28;20251;-77
2022/11/27 02:10:18;;;;;;;7.60;2.47;;;2.00;99.90;;;1.63;100.00;101472.97;5015905;28;20227;-77
2022/11/27 02:13:33;;;;;;;11.65;3.65;;;1.80;99.90;;;1.51;100.00;101473.13;5001918;28;20228;-77
2022/11/27 02:16:22;;;;;;;11.25;3.53;;;2.00;99.90;;;1.58;100.00;101471.78;5011639;28;20347;-77
2022/11/27 02:19:07;;;;;;;12.48;3.85;;;1.70;99.90;;;1.64;100.00;101487.81;4996557;28;20285;-77
2022/11/27 02:21:48;;;;;;;12.90;4.00;;;1.70;99.90;;;1.72;100.00;101490.88;4997877;28;20262;-77
2022/11/27 02:24:39;;;;;;;15.50;4.80;;;1.80;99.90;;;1.94;100.00;101514.88;4996385;28;20227;-77
2022/11/27 02:27:26;;;;;;;14.50;4.65;;;1.90;99.90;;;1.93;100.00;101513.06;5013101;28;20706;-77
2022/11/27 02:29:56;;;;;;;8.77;3.05;;;2.40;99.90;;;2.10;100.00;101519.28;5016122;28;20314;-78
2022/11/27 02:32:50;;;;;;;12.77;4.07;;;2.10;99.90;;;1.99;100.00;101505.59;5010772;28;20250;-77
2022/11/27 02:35:45;;;;;;;12.93;4.13;;;2.10;99.90;;;1.95;100.00;101503.63;4994126;28;20726;-78
2022/11/27 02:38:37;;;;;;;8.15;2.70;;;2.10;99.90;;;2.06;100.00;101502.56;5013742;28;20259;-77
2022/11/27 02:41:14;;;;;;;10.35;3.08;;;2.20;99.90;;;2.06;100.00;101496.44;4998341;28;20278;-77
2022/11/27 02:43:47;;;;;;;8.45;2.67;;;2.50;99.90;;;2.12;100.00;101494.19;5012124;28;20291;-77
2022/11/27 02:46:17;;;;;;;11.50;3.60;;;2.20;99.90;;;2.35;100.00;101513.81;4995865;28;20273;-78
2022/11/27 02:48:53;;;;;;;6.03;2.08;;;2.40;99.90;;;2.42;100.00;101511.66;5000027;28;20238;-77
2022/11/27 02:51:30;;;;;;;14.95;4.85;;;2.50;99.90;;;2.49;100.00;101505.09;5019342;28;20252;-78
2022/11/27 02:54:02;;;;;;;13.70;4.18;;;2.60;99.90;;;2.53;100.00;101509.69;4997847;28;20694;-77
2022/11/27 02:56:31;;;;;;;10.95;3.45;;;2.60;99.90;;;2.54;100.00;101491.50;5002951;28;20284;-77
2022/11/27 02:59:04;;;;;;;10.50;3.38;;;2.70;99.90;;;2.58;100.00;101493.47;5000007;28;20258;-77
2022/11/27 03:01:38;;;;;;;8.15;2.58;;;2.90;99.90;;;2.57;100.00;101494.28;4988753;28;20310;-77
2022/11/27 03:04:12;;;;;;;7.30;2.33;;;2.70;99.90;;;2.63;100.00;101498.09;4999593;28;20223;-77
2022/11/27 03:06:46;;;;;;;9.80;3.17;;;2.90;99.90;;;2.66;100.00;101490.44;5000315;28;20222;-77
2022/11/27 03:09:18;;;;;;;11.63;3.78;;;2.90;99.90;;;2.74;100.00;101492.66;4976250;28;20310;-78
2022/11/27 03:11:47;;;;;;;14.73;4.63;;;3.00;99.90;;;2.71;100.00;101499.44;5014885;28;20319;-78
2022/11/27 03:14:15;;;;;;;8.68;2.78;;;2.90;99.90;;;2.67;100.00;101495.75;4986239;28;20227;-78
2022/11/27 03:17:05;;;;;;;11.60;3.60;;;2.90;99.90;;;2.70;100.00;101497.63;4997760;28;20322;-78
2022/11/27 03:19:54;;;;;;;10.23;3.47;;;2.80;99.90;;;2.72;100.00;101493.41;5017749;28;20318;-79
2022/11/27 03:22:22;;;;;;;15.05;4.57;;;2.80;99.90;;;2.72;100.00;101489.06;5010648;28;20311;-77
2022/11/27 03:24:49;;;;;;;11.30;3.65;;;2.90;99.90;;;2.74;100.00;101478.72;5002132;28;20241;-78
2022/11/27 03:27:31;;;;;;;12.75;4.05;;;2.90;99.90;;;2.72;100.00;101469.88;5012707;28;20242;-78
2022/11/27 03:30:02;;;;;;;14.38;4.43;;;2.90;99.90;;;2.73;100.00;101474.28;5013330;28;20258;-78
2022/11/27 03:32:31;;;;;;;14.45;4.50;;;3.00;99.90;;;2.73;100.00;101477.81;5012005;28;20247;-77
2022/11/27 03:34:58;;;;;;;17.80;5.38;;;2.80;99.90;;;2.71;100.00;101475.94;4981667;28;20235;-78
2022/11/27 03:37:26;;;;;;;7.28;2.35;;;2.90;99.90;;;2.66;100.00;101462.59;4999774;28;20321;-77
2022/11/27 03:39:54;;;;;;;7.25;2.42;;;2.80;99.90;;;2.62;100.00;101457.13;5004254;28;20314;-77
2022/11/27 03:42:35;;;;;;;10.23;3.17;;;2.80;99.90;;;2.65;100.00;101452.97;4994714;28;20251;-78
2022/11/27 03:45:06;;;;;;;9.93;3.08;;;2.80;99.90;;;2.65;100.00;101452.97;5015084;28;20314;-77
2022/11/27 03:48:07;;;;;;;9.85;3.10;;;2.80;99.90;;;2.64;100.00;101456.41;5017074;28;20306;-77
2022/11/27 03:50:41;;;;;;;9.60;3.13;;;2.80;99.90;;;2.54;100.00;101456.66;5013102;28;20323;-78
2022/11/27 03:53:32;;;;;;;10.07;3.35;;;2.70;99.90;;;2.54;100.00;101456.66;5002750;28;20721;-78
2022/11/27 03:56:21;;;;;;;14.30;4.40;;;2.70;99.90;;;2.52;100.00;101459.16;4996226;28;20234;-77
2022/11/27 03:59:01;;;;;;;8.98;2.92;;;2.70;99.90;;;2.47;100.00;101449.28;5014237;28;20262;-78
2022/11/27 04:01:28;;;;;;;8.65;2.65;;;2.60;99.90;;;2.41;100.00;101447.22;5005640;28;20315;-77
2022/11/27 04:03:56;;;;;;;8.02;2.67;;;2.50;99.90;;;2.43;100.00;101445.59;5004480;28;20229;-77
2022/11/27 04:06:23;;;;;;;14.18;4.47;;;2.70;99.90;;;2.27;100.00;101431.56;5013709;28;20251;-78
2022/11/27 04:08:50;;;;;;;16.63;5.38;;;2.40;99.90;;;2.32;100.00;101428.41;4987082;28;20326;-77
2022/11/27 04:11:17;;;;;;;12.43;3.90;;;2.50;99.90;;;2.29;100.00;101430.84;5017960;28;20286;-79
2022/11/27 04:13:44;;;;;;;10.52;3.83;;;2.60;99.90;;;2.21;100.00;101432.09;5002862;28;20233;-77
2022/11/27 04:16:11;;;;;;;14.75;4.60;;;2.30;99.90;;;2.23;100.00;101434.00;5016927;28;20230;-77
2022/11/27 04:18:38;;;;;;;14.27;4.57;;;2.40;99.90;;;2.21;100.00;101430.41;5016383;28;20298;-77
2022/11/27 04:21:05;;;;;;;14.32;4.63;;;2.40;99.90;;;2.24;100.00;101427.97;5012684;28;20251;-77
2022/11/27 04:23:32;;;;;;;13.57;4.40;;;2.40;99.90;;;2.19;100.00;101421.56;5012841;28;20289;-78
2022/11/27 04:25:59;;;;;;;15.25;4.75;;;2.90;99.90;;;2.23;100.00;101434.00;5013662;28;20295;-77
2022/11/27 04:28:26;;;;;;;12.23;3.88;;;2.50;99.90;;;2.26;100.00;101433.28;5012258;28;20318;-77
2022/11/27 04:30:53;;;;;;;13.90;4.35;;;2.40;99.90;;;2.19;100.00;101420.69;5016630;28;20255;-78
2022/11/27 04:33:21;;;;;;;11.70;3.92;;;3.10;99.90;;;2.21;100.00;101416.44;5015875;28;20223;-79
2022/11/27 04:35:50;;;;;;;14.15;4.57;;;2.40;99.90;;;2.09;100.00;101403.59;5014577;28;20268;-77
2022/11/27 04:38:19;;;;;;;14.38;4.60;;;2.30;99.90;;;2.08;100.00;101400.88;4990015;28;20330;-78
2022/11/27 04:40:46;;;;;;;18.90;5.75;;;2.30;99.90;;;1.88;100.00;101387.56;4986064;28;20234;-78
2022/11/27 04:43:13;;;;;;;15.68;4.72;;;3.00;99.90;;;1.90;100.00;101391.19;4996038;28;20306;-78
2022/11/27 04:45:40;;;;;;;14.63;4.60;;;2.20;99.90;;;1.88;100.00;101397.13;4998165;28;20227;-77
2022/11/27 04:48:07;;;;;;;6.35;2.22;;;2.10;99.90;;;1.93;100.00;101390.47;5016707;28;20270;-78
2022/11/27 04:50:34;;;;;;;10.27;3.17;;;2.70;99.90;;;1.92;100.00;101393.88;5019064;28;20318;-78
2022/11/27 04:53:01;;;;;;;9.98;3.17;;;2.10;99.90;;;1.84;100.00;101392.53;5004537;28;20242;-77
2022/11/27 04:55:28;;;;;;;8.48;2.63;;;1.90;99.90;;;1.82;100.00;101388.94;5020536;28;20258;-77
2022/11/27 04:57:55;;;;;;;11.10;3.60;;;2.20;99.90;;;1.89;100.00;101391.09;5020655;28;20314;-77
2022/11/27 05:00:22;;;;;;;13.15;4.18;;;2.10;99.90;;;1.81;100.00;101398.47;5023304;28;20310;-78
2022/11/27 05:02:49;;;;;;;13.18;4.20;;;2.00;99.90;;;1.78;100.00;101393.06;5002940;28;20216;-78
2022/11/27 05:05:16;;;;;;;8.50;2.90;;;2.00;99.90;;;1.83;100.00;101393.34;5021357;28;20253;-79
2022/11/27 05:07:43;;;;;;;18.55;5.88;;;2.80;99.90;;;1.88;100.00;101397.13;5010170;28;20231;-78
2022/11/27 05:10:11;;;;;;;10.88;3.58;;;2.10;99.90;;;1.82;100.00;101400.25;5009117;28;20227;-78
2022/11/27 05:12:38;;;;;;;15.55;4.95;;;2.00;99.90;;;1.87;100.00;101401.44;5005070;28;20259;-78
2022/11/27 05:15:06;;;;;;;11.88;3.80;;;2.10;99.90;;;1.87;100.00;101400.53;5006264;28;20622;-78
2022/11/27 05:17:33;;;;;;;15.68;4.90;;;2.00;99.90;;;1.85;100.00;101404.75;5006346;28;20242;-77
2022/11/27 05:20:01;;;;;;;13.15;4.22;;;2.00;99.90;;;1.83;100.00;101395.94;5013157;28;20235;-77
2022/11/27 05:22:28;;;;;;;17.05;5.28;;;2.00;99.90;;;1.91;100.00;101403.41;5006870;28;20628;-78
2022/11/27 05:24:55;;;;;;;15.45;4.65;;;2.10;99.90;;;1.92;100.00;101400.00;5006574;28;20278;-77
2022/11/27 05:27:23;;;;;;;13.68;4.22;;;2.10;99.90;;;1.97;100.00;101401.97;5012417;28;20258;-78
2022/11/27 05:29:50;;;;;;;15.05;4.75;;;2.10;99.90;;;1.88;100.00;101392.78;5008589;28;20235;-78
2022/11/27 05:32:17;;;;;;;9.68;3.08;;;2.10;99.90;;;1.95;100.00;101393.16;5002050;28;20254;-77
2022/11/27 05:34:44;;;;;;;13.30;4.78;;;2.10;99.90;;;1.93;100.00;101393.97;5014855;28;20714;-77
2022/11/27 05:37:12;;;;;;;13.40;4.20;;;2.30;99.90;;;1.90;100.00;101400.72;5011739;28;20468;-78
2022/11/27 05:39:45;;;;;;;9.15;2.90;;;2.20;99.90;;;1.91;100.00;101398.19;5015418;28;20258;-78
2022/11/27 05:42:12;;;;;;;14.30;4.40;;;2.40;99.90;;;1.88;100.00;101397.13;5012908;28;20231;-79
2022/11/27 05:44:39;;;;;;;15.80;4.93;;;2.30;99.90;;;1.86;100.00;101391.81;5009912;28;20339;-78
2022/11/27 05:47:06;;;;;;;13.88;4.40;;;2.10;99.90;;;1.93;100.00;101396.56;5005674;28;20297;-78
2022/11/27 05:49:34;;;;;;;13.55;4.25;;;2.10;99.90;;;1.82;100.00;101389.81;5012397;28;20250;-78
2022/11/27 05:52:01;;;;;;;11.50;3.65;;;2.00;99.90;;;1.87;100.00;101408.34;5010695;28;20242;-78
2022/11/27 05:54:28;;;;;;;9.30;3.15;;;2.00;99.90;;;1.89;100.00;101414.56;5015777;28;20713;-77
2022/11/27 05:56:55;;;;;;;10.35;3.25;;;2.10;99.90;;;1.97;100.00;101426.34;5005965;28;20322;-77
2022/11/27 05:59:22;;;;;;;10.43;3.22;;;2.10;99.90;;;1.96;100.00;101408.91;5024695;28;20553;-77
2022/11/27 06:01:50;;;;;;;8.45;2.70;;;2.10;99.90;;;2.04;100.00;101418.06;5021130;28;20243;-77
2022/11/27 06:04:17;;;;;;;8.48;2.72;;;2.20;99.90;;;1.99;100.00;101414.28;5027125;28;20314;-78
2022/11/27 06:06:45;;;;;;;10.73;3.30;;;2.20;99.90;;;2.01;100.00;101415.28;5028890;28;20239;-77
2022/11/27 06:09:12;;;;;;;6.80;2.22;;;2.20;99.90;;;2.02;100.00;101409.25;5028904;28;20314;-77
2022/11/27 06:11:41;;;;;;;7.85;2.58;;;2.70;99.90;;;2.11;100.00;101409.78;5029505;28;20242;-78
2022/11/27 06:14:09;;;;;;;6.68;2.28;;;2.40;99.90;;;2.12;100.00;101406.38;5030513;28;20223;-78
2022/11/27 06:16:36;;;;;;;7.72;2.65;;;2.30;99.90;;;2.06;100.00;101400.81;5007467;28;20711;-77
2022/11/27 06:19:04;;;;;;;8.60;2.67;;;2.30;99.90;;;2.11;100.00;101399.34;5026440;28;20603;-78
2022/11/27 06:21:31;;;;;;;9.75;3.33;;;2.30;99.90;;;2.14;100.00;101401.25;5025717;28;20229;-77
2022/11/27 06:23:58;;;;;;;7.85;2.95;;;2.30;99.90;;;2.21;100.00;101406.91;5019333;28;20251;-79
2022/11/27 06:26:28;;;;;;;8.43;2.85;;;2.40;99.90;;;2.21;100.00;101403.41;5026513;28;20262;-77
2022/11/27 06:28:58;;;;;;;9.10;3.03;;;2.50;99.90;;;2.21;100.00;101400.78;5023920;28;20251;-77
2022/11/27 06:31:30;;;;;;;10.20;3.42;;;2.40;99.90;;;2.24;100.00;101411.41;5005649;28;20741;-77
2022/11/27 06:33:58;;;;;;;8.27;2.78;;;2.40;99.90;;;2.19;100.00;101416.34;5021152;28;20317;-77
2022/11/27 06:36:35;;;;;;;6.53;2.28;;;2.40;99.90;;;2.20;100.00;101419.88;5023596;28;20314;-77
2022/11/27 06:39:04;;;;;;;7.22;2.42;;;2.40;99.90;;;2.30;100.00;101419.59;5024937;28;20223;-77
2022/11/27 06:41:32;;;;;;;10.95;3.45;;;2.60;99.90;;;2.17;100.00;101410.16;5009016;28;20231;-79
2022/11/27 06:44:00;;;;;;;12.13;4.07;;;2.40;99.90;;;2.28;100.00;101421.22;5028395;28;20595;-78
2022/11/27 06:46:28;;;;;;;8.73;3.00;;;2.40;99.90;;;2.35;100.00;101427.69;5003568;28;20314;-78
2022/11/27 06:48:58;;;;;;;7.18;2.40;;;2.50;99.90;;;2.35;100.00;101417.25;5023611;28;20239;-78
2022/11/27 06:51:28;;;;;;;6.88;2.40;;;2.50;99.90;;;2.35;100.00;101418.13;5023198;28;20245;-78
2022/11/27 06:53:59;;;;;;;8.60;2.75;;;2.50;99.90;;;2.33;100.00;101408.44;5025348;28;20227;-79
2022/11/27 06:56:29;;;;;;;9.20;2.88;;;2.50;99.90;;;2.39;100.00;101399.22;5012429;28;20230;-79
2022/11/27 06:58:59;;;;;;;8.18;2.75;;;3.40;99.90;;;2.39;100.00;101401.84;5035784;28;20242;-79
2022/11/27 07:01:30;;;;;;;5.80;2.08;;;2.50;99.90;;;2.40;100.00;101401.03;5030184;28;20800;-79
2022/11/27 07:03:57;;;;;;;7.28;2.30;;;2.70;99.90;;;2.36;100.00;101395.53;5026763;28;20233;-78
2022/11/27 07:06:26;;;;;;;13.00;4.40;;;2.50;99.90;;;2.35;100.00;101393.75;5018870;28;20314;-78
2022/11/27 07:08:54;;;;;;;7.00;2.40;;;2.50;99.90;;;2.36;100.00;101385.09;5022714;28;20292;-78
2022/11/27 07:11:25;;;;;;;7.00;2.30;;;2.50;99.90;;;2.48;100.00;101401.47;5019825;28;20246;-78
2022/11/27 07:13:56;;;;;;;8.18;2.85;;;2.60;99.90;;;2.44;100.00;101387.34;4998364;28;20297;-78
2022/11/27 07:16:24;;;;;;;9.15;3.10;;;2.80;99.90;;;2.48;100.00;101393.63;5027156;28;20286;-78
2022/11/27 07:18:58;;;;;;;7.00;2.40;;;2.80;99.90;;;2.42;100.00;101401.13;5030328;28;20259;-78
2022/11/27 07:21:26;;;;;;;8.30;2.75;;;2.60;99.90;;;2.37;100.00;101406.06;5026814;28;20247;-78
2022/11/27 07:23:57;;;;;;;8.20;2.75;;;2.50;99.90;;;2.35;100.00;101409.41;5017506;28;20250;-78
2022/11/27 07:26:27;;;;;;;7.53;2.58;;;2.50;99.90;;;2.34;100.00;101420.66;5029017;28;20238;-78
2022/11/27 07:28:55;;;;;;;8.75;2.80;;;2.50;99.90;;;2.34;100.00;101416.34;5032602;28;20276;-78
2022/11/27 07:31:27;;;;;;;9.15;3.15;;;2.50;99.90;;;2.41;100.00;101422.81;5017633;28;20671;-78
2022/11/27 07:33:55;;;;;;;10.52;3.50;;;2.50;99.90;;;2.40;100.00;101415.78;5022439;28;20237;-78
2022/11/27 07:36:27;;;;;;;9.55;3.05;;;2.70;99.90;;;2.43;100.00;101416.88;5028238;28;20280;-78
2022/11/27 07:38:54;;;;;;;7.95;2.65;;;2.60;99.90;;;2.43;100.00;101411.66;5027013;28;20237;-78
2022/11/27 07:41:21;;;;;;;8.82;3.22;;;2.60;99.90;;;2.51;100.00;101406.84;5023967;28;20287;-78
2022/11/27 07:43:48;;;;;;;8.50;3.00;;;2.70;99.90;;;2.55;100.00;101407.13;5026564;28;20239;-78
2022/11/27 07:46:21;;;;;;;7.20;2.38;;;2.70;99.90;;;2.65;100.00;101412.91;5029331;28;20281;-78
2022/11/27 07:48:50;;;;;;;6.65;2.25;;;2.80;99.90;;;2.59;100.00;101408.19;5021093;28;20275;-78
2022/11/27 07:51:20;;;;;;;8.55;2.78;;;2.90;99.90;;;2.53;100.00;101402.63;5025600;28;20346;-79
2022/11/27 07:53:50;;;;;;;6.88;2.30;;;2.70;99.90;;;2.56;100.00;101402.78;5013618;28;20238;-78
2022/11/27 07:56:18;;;;;;;6.03;1.95;;;2.70;99.90;;;2.58;100.00;101404.69;5013231;28;20227;-79
2022/11/27 07:58:45;;;;;;;6.20;2.10;;;2.80;99.90;;;2.62;100.00;101423.16;5028882;28;20286;-78
2022/11/27 08:01:16;;;;;;;9.25;3.17;;;2.80;99.90;;;2.53;100.00;101410.47;5031890;28;20230;-78
2022/11/27 08:03:44;;;;;;;7.35;2.53;;;2.80;99.90;;;2.54;100.00;101402.72;5037188;28;20222;-78
2022/11/27 08:06:24;;;;;;;7.15;2.92;;;2.70;99.90;;;2.65;100.00;101418.13;5037487;28;20285;-78
2022/11/27 08:08:52;;;;;;;10.48;3.28;;;2.80;99.90;;;2.57;100.00;101396.75;5026203;28;20743;-78
2022/11/27 08:11:34;;;;;;;6.75;2.33;;;2.80;99.90;;;2.64;100.00;101383.28;5021047;28;20227;-78
2022/11/27 08:14:06;;;;;;;8.30;2.78;;;2.80;99.90;;;2.58;100.00;101375.97;5025503;28;20282;-78
2022/11/27 08:16:34;;;;;;;10.82;3.50;;;2.80;99.90;;;2.62;100.00;101394.44;5025803;28;20227;-79
2022/11/27 08:19:03;;;;;;;19.58;5.63;;;2.80;99.90;;;2.56;100.00;101389.75;5022747;28;20226;-78
2022/11/27 08:21:31;;;;;;;18.50;5.88;;;2.80;99.90;;;2.61;100.00;101403.09;5011358;28;20230;-79
2022/11/27 08:23:58;;;;;;;8.43;2.65;;;3.00;99.90;;;2.64;100.00;101398.94;5021303;28;20274;-78
2022/11/27 08:26:28;;;;;;;7.35;2.40;;;2.90;99.90;;;2.72;100.00;101399.38;5009749;28;20235;-78
2022/11/27 08:28:56;;;;;;;11.70;3.63;;;2.90;99.90;;;2.82;100.00;101414.75;5026196;28;20289;-78
2022/11/27 08:31:24;;;;;;;8.18;3.15;;;2.90;99.90;;;2.87;100.00;101426.34;5027148;28;20227;-78
2022/11/27 08:33:51;;;;;;;8.38;2.70;;;3.00;99.90;;;2.86;100.00;101422.81;5030676;28;20326;-78
2022/11/27 08:36:18;;;;;;;10.15;3.40;;;3.10;99.90;;;2.85;100.00;101428.88;5014878;28;20326;-78
2022/11/27 08:38:46;;;;;;;11.25;4.30;;;3.00;99.90;;;2.75;100.00;101408.28;5020574;28;20227;-78
2022/11/27 08:41:13;;;;;;;5.93;2.03;;;2.90;99.90;;;2.88;100.00;101415.06;5024754;28;20330;-78
2022/11/27 08:43:40;;;;;;;7.97;2.60;;;3.00;99.90;;;2.83;100.00;101413.91;5029190;28;20235;-78
2022/11/27 08:46:08;;;;;;;8.75;3.15;;;3.00;99.90;;;2.77;100.00;101418.81;5028779;28;20326;-78
2022/11/27 08:48:36;;;;;;;7.20;2.47;;;3.10;99.90;;;2.82;100.00;101413.03;5033225;28;20231;-78
2022/11/27 08:51:11;;;;;;;8.88;3.10;;;3.00;99.90;;;2.87;100.00;101410.66;5033595;28;20302;-78
2022/11/27 08:53:38;;;;;;;9.15;3.00;;;3.00;99.90;;;3.04;100.00;101437.72;5036170;28;20318;-78
2022/11/27 08:56:08;;;;;;;8.60;2.85;;;3.20;99.90;;;3.07;100.00;101436.19;5025160;28;20282;-78
2022/11/27 08:58:35;;;;;;;10.50;3.60;;;3.20;99.90;;;2.96;100.00;101423.34;5030430;28;20384;-81
2022/11/27 09:01:23;;;;;;;12.02;3.63;;;3.20;99.90;;;3.10;100.00;101435.44;5034639;28;20310;-81
2022/11/27 09:03:51;;;;;;;7.60;2.50;;;3.30;99.90;;;3.20;100.00;101435.13;5005978;28;20227;-78
2022/11/27 09:06:28;;;;;;;7.45;2.45;;;3.30;99.90;;;3.19;100.00;101415.03;5031985;28;20234;-78
2022/11/27 09:09:00;;;;;;;7.10;2.45;;;3.30;99.90;;;3.18;100.00;101413.25;5016087;28;20227;-80
2022/11/27 09:11:30;;;;;;;8.13;2.63;;;3.40;99.90;;;3.09;100.00;101417.97;5031562;28;20222;-80
2022/11/27 09:14:00;;;;;;;10.00;3.45;;;3.30;99.90;;;3.27;100.00;101433.75;5041852;28;20272;-81
2022/11/27 09:16:28;;;;;;;10.93;3.85;;;4.10;99.90;;;3.26;100.00;101425.00;5026742;28;20757;-81
2022/11/27 09:18:56;;;;;;;8.30;2.70;;;3.50;99.90;;;3.35;100.00;101420.28;5019146;28;20242;-81
2022/11/27 09:21:27;;;;;;;18.02;5.57;;;4.20;99.90;;;3.20;100.00;101414.22;5015905;28;20323;-83
2022/11/27 09:24:00;;;;;;;5.97;2.10;;;3.40;99.90;;;3.29;100.00;101411.19;5019999;28;20258;-81
2022/11/27 09:26:33;;;;;;;13.13;5.05;;;4.00;99.90;;;3.38;100.00;101417.81;5028380;28;20235;-81
2022/11/27 09:29:14;;;;;;;6.93;2.42;;;3.50;99.90;;;3.28;100.00;101415.53;4996660;28;20231;-81
2022/11/27 09:31:49;;;;;;;7.88;2.50;;;3.40;99.90;;;3.26;100.00;101414.53;5033555;28;20238;-81
2022/11/27 09:34:17;;;;;;;11.80;3.95;;;3.40;99.90;;;3.42;100.00;101434.56;5024343;28;20251;-83
2022/11/27 09:36:44;;;;;;;9.38;3.10;;;3.50;99.90;;;3.42;100.00;101434.56;5018589;28;20272;-82
2022/11/27 09:39:12;;;;;;;12.90;4.30;;;3.60;99.90;;;3.37;100.00;101436.94;5017826;28;20239;-83
2022/11/27 09:41:49;;;;;;;8.65;3.00;;;3.50;99.90;;;3.50;100.00;101431.56;5021053;28;20250;-82
2022/11/27 09:44:34;;;;;;;12.85;4.30;;;3.60;99.90;;;3.54;100.00;101441.34;4997233;28;20316;-83
2022/11/27 09:47:30;;;;;;;8.93;2.92;;;3.80;99.90;;;3.54;100.00;101425.66;5017078;28;20250;-81
2022/11/27 09:50:03;;;;;;;8.73;2.95;;;3.70;99.90;;;3.56;100.00;101419.63;5009395;28;20262;-81
2022/11/27 09:53:19;;;;;;;9.70;3.08;;;4.50;99.90;;;3.74;100.00;101431.94;5022287;28;20227;-83
2022/11/27 09:55:50;;;;;;;11.48;3.88;;;3.90;99.90;;;3.67;100.00;101413.22;5010370;28;20252;-81
2022/11/27 09:58:41;;;;;;;7.20;2.42;;;4.00;99.90;;;3.79;100.00;101414.75;5000898;28;20266;-82
2022/11/27 10:01:12;;;;;;;10.23;3.35;;;3.90;99.90;;;3.83;100.00;101407.97;5008945;28;20267;-83
2022/11/27 10:03:42;;;;;;;9.40;3.08;;;4.00;99.90;;;4.02;100.00;101415.06;5027611;28;20266;-81
2022/11/27 10:06:33;;;;;;;10.77;3.97;;;4.10;99.90;;;3.92;100.00;101416.31;5026080;28;20235;-82
2022/11/27 10:09:21;;;;;;;11.63;3.70;;;4.20;99.90;;;3.98;100.00;101423.59;5006174;28;20258;-80
2022/11/27 10:12:39;;;;;;;9.27;3.08;;;4.20;99.90;;;4.03;100.00;101430.84;5022462;28;20227;-80
2022/11/27 10:15:37;;;;;;;8.38;2.85;;;4.10;99.90;;;3.97;100.00;101420.06;4996882;28;20288;-78
2022/11/27 10:18:34;;;;;;;10.75;3.67;;;4.50;99.90;;;3.96;100.00;101407.81;5006890;28;20658;-79
2022/11/27 10:21:48;;;;;;;9.40;3.20;;;4.10;99.90;;;4.28;100.00;101424.25;5019773;28;20243;-81
2022/11/27 10:24:44;;;;;;;7.13;2.42;;;4.20;99.90;;;4.46;100.00;101430.38;4998152;28;20290;-81
2022/11/27 10:27:43;;;;;;;9.73;3.53;;;4.50;99.90;;;4.41;100.00;101413.53;5009232;28;20270;-79
2022/11/27 10:30:20;;;;;;;8.48;2.90;;;4.60;99.90;;;4.43;100.00;101414.53;5004039;28;20310;-77
2022/11/27 10:32:59;;;;;;;7.18;2.50;;;4.50;99.90;;;4.35;100.00;101400.16;5003067;28;20230;-79
2022/11/27 10:35:35;;;;;;;8.48;2.95;;;4.50;99.90;;;4.44;100.00;101392.75;5011402;28;20288;-78
2022/11/27 10:38:19;;;;;;;11.32;4.55;;;4.50;99.90;;;4.68;100.00;101399.16;5004199;28;20242;-78